createdAt,value
2019-02-21T00:01:35.342Z,30.72
2019-02-21T00:04:04.399Z,35.40
2019-02-21T00:06:32.950Z,32.17
2019-02-21T00:09:01.616Z,35.53
2019-02-21T00:11:30.259Z,37.48
2019-02-21T00:13:58.761Z,33.08
2019-02-21T00:16:27.674Z,38.30
2019-02-21T00:18:56.137Z,34.13
2019-02-21T00:21:24.688Z,36.42
2019-02-21T00:23:53.204Z,34.13
2019-02-21T00:26:21.859Z,36.40
2019-02-21T00:28:50.346Z,35.15
2019-02-21T00:31:18.949Z,34.43
2019-02-21T00:33:47.444Z,37.58
2019-02-21T00:36:16.050Z,36.50
2019-02-21T00:38:44.689Z,37.35
2019-02-21T00:41:13.209Z,35.50
2019-02-21T00:43:41.907Z,35.23
2019-02-21T00:46:10.519Z,36.88
2019-02-21T00:48:39.052Z,37.08
2019-02-21T00:51:07.553Z,36.42
2019-02-21T00:53:36.032Z,38.30
2019-02-21T00:56:04.557Z,37.23
2019-02-21T00:58:33.445Z,37.50
2019-02-21T01:01:01.927Z,32.93
2019-02-21T01:03:30.377Z,35.30
2019-02-21T01:05:58.949Z,44.13
2019-02-21T01:08:27.467Z,35.23
2019-02-21T01:10:55.948Z,41.67
2019-02-21T01:13:24.406Z,45.33
2019-02-21T01:15:52.880Z,37.58
2019-02-21T01:18:21.522Z,37.45
2019-02-21T01:20:49.978Z,38.17
2019-02-21T01:23:18.431Z,39.83
2019-02-21T01:25:46.903Z,34.97
2019-02-21T01:28:15.440Z,35.25
2019-02-21T01:30:44.002Z,39.33
2019-02-21T01:33:12.550Z,40.70
2019-02-21T01:35:41.044Z,34.60
2019-02-21T01:38:09.520Z,37.10
2019-02-21T01:40:38.145Z,38.20
2019-02-21T01:43:06.709Z,39.53
2019-02-21T01:45:35.380Z,38.93
2019-02-21T01:48:04.075Z,39.83
2019-02-21T01:50:32.631Z,43.87
2019-02-21T01:53:01.382Z,39.60
2019-02-21T01:55:29.860Z,39.48
2019-02-21T01:57:58.308Z,40.25
2019-02-21T02:00:27.066Z,41.13
2019-02-21T02:02:55.614Z,42.00
2019-02-21T02:05:24.133Z,38.20
2019-02-21T02:07:52.651Z,43.40
2019-02-21T02:10:21.249Z,42.50
2019-02-21T02:12:49.711Z,41.47
2019-02-21T02:15:18.381Z,39.92
2019-02-21T02:17:46.945Z,39.45
2019-02-21T02:20:15.428Z,39.38
2019-02-21T02:22:44.118Z,41.47
2019-02-21T02:25:12.632Z,38.30
2019-02-21T02:27:41.080Z,45.23
2019-02-21T02:30:10.758Z,39.45
2019-02-21T02:32:39.226Z,41.30
2019-02-21T02:35:08.035Z,46.48
2019-02-21T02:37:36.844Z,43.87
2019-02-21T02:40:06.375Z,39.85
2019-02-21T02:42:34.906Z,36.77
2019-02-21T02:45:03.515Z,41.65
2019-02-21T02:47:32.062Z,41.20
2019-02-21T02:50:00.617Z,44.95
2019-02-21T02:52:29.100Z,43.63
2019-02-21T02:54:57.553Z,49.67
2019-02-21T02:57:26.017Z,45.25
2019-02-21T02:59:54.688Z,41.90
2019-02-21T03:02:23.165Z,46.68
2019-02-21T03:04:51.683Z,45.10
2019-02-21T03:07:20.186Z,49.60
2019-02-21T03:09:48.732Z,46.20
2019-02-21T03:12:17.211Z,46.02
2019-02-21T03:14:45.705Z,43.00
2019-02-21T03:17:14.382Z,44.75
2019-02-21T03:19:42.875Z,40.25
2019-02-21T03:22:11.511Z,45.83
2019-02-21T03:24:40.029Z,42.83
2019-02-21T03:27:08.484Z,43.08
2019-02-21T03:29:37.059Z,40.58
2019-02-21T03:32:05.525Z,43.63
2019-02-21T03:34:33.982Z,39.33
2019-02-21T03:37:02.516Z,41.60
2019-02-21T03:39:31.043Z,38.70
2019-02-21T03:41:59.574Z,43.20
2019-02-21T03:44:28.110Z,41.63
2019-02-21T03:46:56.586Z,37.75
2019-02-21T03:49:25.143Z,38.40
2019-02-21T03:51:53.665Z,41.60
2019-02-21T03:54:22.204Z,41.28
2019-02-21T03:56:50.764Z,40.07
2019-02-21T03:59:19.480Z,39.13
2019-02-21T04:01:48.099Z,37.53
2019-02-21T04:04:16.654Z,39.70
2019-02-21T04:06:45.289Z,43.07
2019-02-21T04:09:13.765Z,41.53
2019-02-21T04:11:42.289Z,37.50
2019-02-21T04:14:10.963Z,38.53
2019-02-21T04:16:39.585Z,38.63
2019-02-21T04:19:08.170Z,38.98
2019-02-21T04:21:36.702Z,37.53
2019-02-21T04:24:05.390Z,39.18
2019-02-21T04:26:33.919Z,42.78
2019-02-21T04:29:02.452Z,39.07
2019-02-21T04:31:30.938Z,39.98
2019-02-21T04:33:59.388Z,40.33
2019-02-21T04:36:27.944Z,43.40
2019-02-21T04:38:56.482Z,38.60
2019-02-21T04:41:25.096Z,44.03
2019-02-21T04:43:53.573Z,41.33
2019-02-21T04:46:22.095Z,39.13
2019-02-21T04:48:50.605Z,43.05
2019-02-21T04:51:19.073Z,42.23
2019-02-21T04:53:48.233Z,46.48
2019-02-21T04:56:16.693Z,46.20
2019-02-21T04:58:45.172Z,54.45
2019-02-21T05:01:13.736Z,43.42
2019-02-21T05:03:42.188Z,44.25
2019-02-21T05:06:10.796Z,44.33
2019-02-21T05:08:39.293Z,44.98
2019-02-21T05:11:07.750Z,41.33
2019-02-21T05:13:36.235Z,40.28
2019-02-21T05:16:04.768Z,36.77
2019-02-21T05:18:33.397Z,45.77
2019-02-21T05:21:01.916Z,41.90
2019-02-21T05:23:30.393Z,38.42
2019-02-21T05:25:58.847Z,38.95
2019-02-21T05:28:29.644Z,39.15
2019-02-21T05:30:59.749Z,39.27
2019-02-21T05:33:35.988Z,42.43
2019-02-21T05:36:09.277Z,39.42
2019-02-21T05:38:42.450Z,37.00
2019-02-21T05:41:21.834Z,38.47
2019-02-21T05:44:08.486Z,35.90
2019-02-21T05:46:57.058Z,43.63
2019-02-21T05:49:29.907Z,41.30
2019-02-21T05:52:00.219Z,34.83
2019-02-21T05:54:30.321Z,46.07
2019-02-21T05:57:15.974Z,44.60
2019-02-21T05:59:57.903Z,43.85
2019-02-21T06:02:53.173Z,44.98
2019-02-21T06:05:16.290Z,41.37
2019-02-21T06:08:02.712Z,45.17
2019-02-21T06:10:38.718Z,42.53
2019-02-21T06:13:17.581Z,43.07
2019-02-21T06:15:47.750Z,54.18
2019-02-21T06:18:32.840Z,46.20
2019-02-21T06:21:08.659Z,44.83
2019-02-21T06:23:50.624Z,45.85
2019-02-21T06:26:23.823Z,51.35
2019-02-21T06:28:54.011Z,51.10
2019-02-21T06:31:22.556Z,48.73
2019-02-21T06:33:51.084Z,53.17
2019-02-21T06:36:19.577Z,52.43
2019-02-21T06:38:48.125Z,49.37
2019-02-21T06:41:16.588Z,47.17
2019-02-21T06:43:45.057Z,51.40
2019-02-21T06:46:13.993Z,53.87
2019-02-21T06:48:42.532Z,57.73
2019-02-21T06:51:11.150Z,52.50
2019-02-21T06:53:39.735Z,53.95
2019-02-21T06:56:08.382Z,58.13
2019-02-21T06:58:37.275Z,54.25
2019-02-21T07:01:05.758Z,52.03
2019-02-21T07:03:34.579Z,57.60
2019-02-21T07:06:03.088Z,60.15
2019-02-21T07:08:31.540Z,57.13
2019-02-21T07:11:06.323Z,57.98
2019-02-21T07:13:30.217Z,55.63
2019-02-21T07:15:58.749Z,52.30
2019-02-21T07:18:28.924Z,58.75
2019-02-21T07:20:57.673Z,59.35
2019-02-21T07:23:27.208Z,53.42
2019-02-21T07:25:57.080Z,63.65
2019-02-21T07:28:27.739Z,67.78
2019-02-21T07:30:55.825Z,62.60
2019-02-21T07:33:28.291Z,54.88
2019-02-21T07:35:54.937Z,53.47
2019-02-21T07:38:23.885Z,61.53
2019-02-21T07:40:52.423Z,60.88
2019-02-21T07:43:20.913Z,72.10
2019-02-21T07:45:49.380Z,68.20
2019-02-21T07:48:17.884Z,65.85
2019-02-21T07:50:46.406Z,68.13
2019-02-21T07:53:15.072Z,64.62
2019-02-21T07:55:43.703Z,62.75
2019-02-21T07:58:12.184Z,56.33
2019-02-21T08:00:40.705Z,59.13
2019-02-21T08:03:09.384Z,52.95
2019-02-21T08:05:37.984Z,46.65
2019-02-21T08:08:09.199Z,47.33
2019-02-21T08:10:36.904Z,47.73
2019-02-21T08:13:05.569Z,51.42
2019-02-21T08:15:34.110Z,49.63
2019-02-21T08:18:02.596Z,53.25
2019-02-21T08:20:35.508Z,52.53
2019-02-21T08:23:03.048Z,55.80
2019-02-21T08:25:31.952Z,51.53
2019-02-21T08:28:00.752Z,52.80
2019-02-21T08:30:29.666Z,57.07
2019-02-21T08:33:08.735Z,54.83
2019-02-21T08:35:37.372Z,56.45
2019-02-21T08:38:06.266Z,57.05
2019-02-21T08:40:34.790Z,62.70
2019-02-21T08:43:04.166Z,57.07
2019-02-21T08:45:33.091Z,57.40
2019-02-21T08:48:01.567Z,52.90
2019-02-21T08:50:30.181Z,54.25
2019-02-21T08:53:00.921Z,59.70
2019-02-21T08:55:28.960Z,55.83
2019-02-21T08:57:57.744Z,60.00
2019-02-21T09:00:26.371Z,59.35
2019-02-21T09:02:54.989Z,59.47
2019-02-21T09:05:23.903Z,56.95
2019-02-21T09:07:52.511Z,56.53
2019-02-21T09:10:21.072Z,58.87
2019-02-21T09:12:49.549Z,57.60
2019-02-21T09:15:18.058Z,59.05
2019-02-21T09:17:46.594Z,61.23
2019-02-21T09:20:15.853Z,55.98
2019-02-21T09:22:44.369Z,56.55
2019-02-21T09:25:13.984Z,60.92
2019-02-21T09:27:42.727Z,66.97
2019-02-21T09:30:18.730Z,58.00
2019-02-21T09:32:47.417Z,59.55
2019-02-21T09:35:15.974Z,60.17
2019-02-21T09:37:44.923Z,56.85
2019-02-21T09:40:14.856Z,60.37
2019-02-21T09:42:43.434Z,55.63
2019-02-21T09:45:19.158Z,57.88
2019-02-21T09:47:47.840Z,55.53
2019-02-21T09:50:16.323Z,57.33
2019-02-21T09:52:44.902Z,58.30
2019-02-21T09:55:18.167Z,53.25
2019-02-21T09:57:46.818Z,56.90
2019-02-21T10:00:19.774Z,55.17
2019-02-21T10:02:48.292Z,56.40
2019-02-21T10:05:17.023Z,59.25
2019-02-21T10:07:45.481Z,55.38
2019-02-21T10:10:15.801Z,59.40
2019-02-21T10:12:44.427Z,53.73
2019-02-21T10:15:16.879Z,54.85
2019-02-21T10:17:45.467Z,54.23
2019-02-21T10:20:17.067Z,53.87
2019-02-21T10:22:45.597Z,57.27
2019-02-21T10:25:22.943Z,53.23
2019-02-21T10:27:50.575Z,57.27
2019-02-21T10:30:21.002Z,51.90
2019-02-21T10:32:49.590Z,50.85
2019-02-21T10:35:18.268Z,49.58
2019-02-21T10:37:46.902Z,50.63
2019-02-21T10:40:16.393Z,51.10
2019-02-21T10:42:44.944Z,50.58
2019-02-21T10:45:15.419Z,51.02
2019-02-21T10:47:44.082Z,57.60
2019-02-21T10:50:15.597Z,49.88
2019-02-21T10:52:44.250Z,49.67
2019-02-21T10:55:13.486Z,46.37
2019-02-21T10:57:42.257Z,50.83
2019-02-21T11:00:17.073Z,47.48
2019-02-21T11:02:45.893Z,48.48
2019-02-21T11:05:14.504Z,45.05
2019-02-21T11:07:42.991Z,49.45
2019-02-21T11:10:13.819Z,45.90
2019-02-21T11:12:42.411Z,49.55
2019-02-21T11:15:13.516Z,49.25
2019-02-21T11:17:42.005Z,55.75
2019-02-21T11:20:13.172Z,51.60
2019-02-21T11:22:41.682Z,46.85
2019-02-21T11:25:11.827Z,54.25
2019-02-21T11:27:40.563Z,47.33
2019-02-21T11:30:17.610Z,41.23
2019-02-21T11:32:46.344Z,40.65
2019-02-21T11:35:15.299Z,44.45
2019-02-21T11:37:46.815Z,38.92
2019-02-21T11:40:18.134Z,35.53
2019-02-21T11:42:47.417Z,35.38
2019-02-21T11:45:17.516Z,35.78
2019-02-21T11:47:46.129Z,35.95
2019-02-21T11:50:16.625Z,35.38
2019-02-21T11:52:45.437Z,33.60
2019-02-21T11:55:16.964Z,33.90
2019-02-21T11:57:45.729Z,33.78
2019-02-21T12:00:20.281Z,33.98
2019-02-21T12:02:48.881Z,35.50
2019-02-21T12:05:27.888Z,30.00
2019-02-21T12:07:48.107Z,25.77
2019-02-21T12:10:17.200Z,27.17
2019-02-21T12:12:46.206Z,30.27
2019-02-21T12:15:16.010Z,25.32
2019-02-21T12:17:44.557Z,28.20
2019-02-21T12:20:17.877Z,24.85
2019-02-21T12:22:46.430Z,27.33
2019-02-21T12:25:20.932Z,23.95
2019-02-21T12:27:49.385Z,25.92
2019-02-21T12:30:21.718Z,25.72
2019-02-21T12:32:50.248Z,25.70
2019-02-21T12:35:29.290Z,24.50
2019-02-21T12:37:49.369Z,25.55
2019-02-21T12:40:20.413Z,27.58
2019-02-21T12:42:49.024Z,26.87
2019-02-21T12:45:22.317Z,26.75
2019-02-21T12:47:53.763Z,22.17
2019-02-21T12:50:21.475Z,24.85
2019-02-21T12:52:50.126Z,26.87
2019-02-21T12:55:27.266Z,25.90
2019-02-21T12:57:48.924Z,24.70
2019-02-21T13:00:22.388Z,28.10
2019-02-21T13:02:50.858Z,26.00
2019-02-21T13:05:19.471Z,26.10
2019-02-21T13:07:47.963Z,30.77
2019-02-21T13:10:18.652Z,25.63
2019-02-21T13:12:47.311Z,25.48
2019-02-21T13:15:16.302Z,26.10
2019-02-21T13:17:44.931Z,26.80
2019-02-21T13:20:14.721Z,29.55
2019-02-21T13:22:43.287Z,25.95
2019-02-21T13:25:14.503Z,33.05
2019-02-21T13:27:46.089Z,26.40
2019-02-21T13:30:16.738Z,31.30
2019-02-21T13:32:45.314Z,27.97
2019-02-21T13:35:14.301Z,29.50
2019-02-21T13:37:42.954Z,28.07
2019-02-21T13:40:15.863Z,28.92
2019-02-21T13:42:44.593Z,26.90
2019-02-21T13:45:17.566Z,26.35
2019-02-21T13:47:45.334Z,28.97
2019-02-21T13:50:18.694Z,27.50
2019-02-21T13:52:47.363Z,27.27
2019-02-21T13:55:15.928Z,28.32
2019-02-21T13:57:44.427Z,26.73
2019-02-21T14:00:24.088Z,32.43
2019-02-21T14:02:52.641Z,23.57
2019-02-21T14:05:21.134Z,19.60
2019-02-21T14:07:49.597Z,20.45
2019-02-21T14:10:18.415Z,19.77
2019-02-21T14:12:46.898Z,25.12
2019-02-21T14:15:24.761Z,23.25
2019-02-21T14:17:53.350Z,19.37
2019-02-21T14:20:22.062Z,18.00
2019-02-21T14:22:50.654Z,17.90
2019-02-21T14:25:19.178Z,17.95
2019-02-21T14:27:47.695Z,17.80
2019-02-21T14:30:18.364Z,16.10
2019-02-21T14:32:46.913Z,18.65
2019-02-21T14:35:16.616Z,15.90
2019-02-21T14:37:45.089Z,13.88
2019-02-21T14:40:17.610Z,13.62
2019-02-21T14:42:46.175Z,14.75
2019-02-21T14:45:19.802Z,16.12
2019-02-21T14:47:48.397Z,13.80
2019-02-21T14:50:17.331Z,15.65
2019-02-21T14:52:46.124Z,15.10
2019-02-21T14:55:17.654Z,19.35
2019-02-21T14:57:46.258Z,20.32
2019-02-21T15:00:22.772Z,19.60
2019-02-21T15:02:51.574Z,16.27
2019-02-21T15:05:20.630Z,22.93
2019-02-21T15:07:49.163Z,21.77
2019-02-21T15:10:18.002Z,23.18
2019-02-21T15:12:46.737Z,23.83
2019-02-21T15:15:17.570Z,22.45
2019-02-21T15:17:46.164Z,20.27
2019-02-21T15:20:16.326Z,24.98
2019-02-21T15:22:44.913Z,23.15
2019-02-21T15:25:13.672Z,24.65
2019-02-21T15:27:42.308Z,24.07
2019-02-21T15:30:16.647Z,26.62
2019-02-21T15:32:45.238Z,26.45
2019-02-21T15:35:14.126Z,26.02
2019-02-21T15:37:44.881Z,26.10
2019-02-21T15:40:13.497Z,28.40
2019-02-21T15:42:42.109Z,26.77
2019-02-21T15:45:23.617Z,28.98
2019-02-21T15:47:50.169Z,26.25
2019-02-21T15:50:19.874Z,26.57
2019-02-21T15:52:49.347Z,28.03
2019-02-21T15:55:19.538Z,26.55
2019-02-21T15:57:48.022Z,31.48
2019-02-21T16:00:18.909Z,28.65
2019-02-21T16:02:47.571Z,28.03
2019-02-21T16:05:16.264Z,32.47
2019-02-21T16:07:44.822Z,33.65
2019-02-21T16:10:16.153Z,27.82
2019-02-21T16:12:45.191Z,29.37
2019-02-21T16:15:16.356Z,28.67
2019-02-21T16:17:44.663Z,29.70
2019-02-21T16:20:17.570Z,30.80
2019-02-21T16:22:46.760Z,37.80
2019-02-21T16:25:17.822Z,32.33
2019-02-21T16:27:46.373Z,32.60
2019-02-21T16:30:15.520Z,33.80
2019-02-21T16:32:44.085Z,33.65
2019-02-21T16:35:14.182Z,32.03
2019-02-21T16:37:42.878Z,37.63
2019-02-21T16:40:13.690Z,32.63
2019-02-21T16:42:42.261Z,34.48
2019-02-21T16:45:12.982Z,34.48
2019-02-21T16:47:41.821Z,34.53
2019-02-21T16:50:12.643Z,34.03
2019-02-21T16:52:41.238Z,31.62
2019-02-21T16:55:15.612Z,34.43
2019-02-21T16:57:45.075Z,39.30
2019-02-21T17:00:20.838Z,40.10
2019-02-21T17:02:49.666Z,35.50
2019-02-21T17:05:18.315Z,35.85
2019-02-21T17:07:46.856Z,34.03
2019-02-21T17:10:18.197Z,35.90
2019-02-21T17:12:46.724Z,36.30
2019-02-21T17:15:19.082Z,38.70
2019-02-21T17:17:47.711Z,38.05
2019-02-21T17:20:18.047Z,36.13
2019-02-21T17:22:46.688Z,38.70
2019-02-21T17:25:16.134Z,35.70
2019-02-21T17:27:46.635Z,37.23
2019-02-21T17:30:16.725Z,37.33
2019-02-21T17:32:45.473Z,41.17
2019-02-21T17:35:14.708Z,32.90
2019-02-21T17:37:43.271Z,33.10
2019-02-21T17:40:17.083Z,34.83
2019-02-21T17:45:14.594Z,35.98
2019-02-21T17:47:43.222Z,35.48
2019-02-21T17:50:14.173Z,40.67
2019-02-21T17:52:42.907Z,36.13
2019-02-21T17:55:12.704Z,39.63
2019-02-21T17:57:41.436Z,35.45
2019-02-21T18:00:25.567Z,38.53
2019-02-21T18:02:54.189Z,40.10
2019-02-21T18:05:22.904Z,34.67
2019-02-21T18:07:51.609Z,44.60
2019-02-21T18:10:20.633Z,36.53
2019-02-21T18:12:50.472Z,42.23
2019-02-21T18:15:19.484Z,40.40
2019-02-21T18:17:48.368Z,38.02
2019-02-21T18:20:17.095Z,41.20
2019-02-21T18:22:45.783Z,37.63
2019-02-21T18:25:26.936Z,36.00
2019-02-21T18:27:55.603Z,41.02
2019-02-21T18:30:24.235Z,43.30
2019-02-21T18:32:52.875Z,44.53
2019-02-21T18:35:21.539Z,47.70
2019-02-21T18:37:50.173Z,45.50
2019-02-21T18:40:21.467Z,40.50
2019-02-21T18:42:50.191Z,41.43
2019-02-21T18:45:18.903Z,41.55
2019-02-21T18:47:47.529Z,47.83
2019-02-21T18:50:16.342Z,41.65
2019-02-21T18:52:44.887Z,40.04
2019-02-21T18:55:13.664Z,36.90
2019-02-21T18:57:42.410Z,38.92
2019-02-21T19:00:20.156Z,41.20
2019-02-21T19:02:48.786Z,39.27
2019-02-21T19:05:17.465Z,36.55
2019-02-21T19:07:46.166Z,42.90
2019-02-21T19:10:19.674Z,43.28
2019-02-21T19:12:48.390Z,46.90
2019-02-21T19:15:18.986Z,51.95
2019-02-21T19:17:47.835Z,47.60
2019-02-21T19:20:18.009Z,50.97
2019-02-21T19:22:46.767Z,56.37
2019-02-21T19:25:15.598Z,52.98
2019-02-21T19:27:44.376Z,57.60
2019-02-21T19:30:28.209Z,52.25
2019-02-21T19:32:56.844Z,60.80
2019-02-21T19:35:25.710Z,59.73
2019-02-21T19:37:54.371Z,62.65
2019-02-21T19:40:24.821Z,60.03
2019-02-21T19:42:56.682Z,61.63
2019-02-21T19:45:26.992Z,72.10
2019-02-21T19:47:55.701Z,61.13
2019-02-21T19:50:24.788Z,54.00
2019-02-21T19:52:53.572Z,56.77
2019-02-21T19:55:22.259Z,59.10
2019-02-21T19:57:50.841Z,65.70
2019-02-21T20:00:25.944Z,59.18
2019-02-21T20:02:55.315Z,54.93
2019-02-21T20:05:24.221Z,59.47
2019-02-21T20:07:52.956Z,58.40
2019-02-21T20:10:21.712Z,55.12
2019-02-21T20:12:50.490Z,52.97
2019-02-21T20:15:19.780Z,52.53
2019-02-21T20:17:48.486Z,56.18
2019-02-21T20:20:19.753Z,53.87
2019-02-21T20:22:48.448Z,51.25
2019-02-21T20:25:17.179Z,49.60
2019-02-21T20:27:45.835Z,50.70
2019-02-21T20:30:18.748Z,44.25
2019-02-21T20:32:47.497Z,51.70
2019-02-21T20:35:16.125Z,55.73
2019-02-21T20:37:44.792Z,52.60
2019-02-21T20:40:13.687Z,53.23
2019-02-21T20:42:42.351Z,62.13
2019-02-21T20:45:15.023Z,56.73
2019-02-21T20:47:43.723Z,55.67
2019-02-21T20:50:14.022Z,54.10
2019-02-21T20:52:42.777Z,53.55
2019-02-21T20:55:12.419Z,55.23
2019-02-21T20:57:41.086Z,54.77
2019-02-21T21:00:15.633Z,58.25
2019-02-21T21:02:44.900Z,59.23
2019-02-21T21:05:19.822Z,61.18
2019-02-21T21:07:48.431Z,63.35
2019-02-21T21:10:17.743Z,55.98
2019-02-21T21:12:46.281Z,62.07
2019-02-21T21:15:15.453Z,63.63
2019-02-21T21:17:44.135Z,53.15
2019-02-21T21:20:17.106Z,60.83
2019-02-21T21:22:44.288Z,57.08
2019-02-21T21:25:15.970Z,58.92
2019-02-21T21:27:44.658Z,62.00
2019-02-21T21:30:15.802Z,60.12
2019-02-21T21:32:44.451Z,59.48
2019-02-21T21:35:13.050Z,62.67
2019-02-21T21:37:41.715Z,64.27
2019-02-21T21:40:17.799Z,58.70
2019-02-21T21:42:46.518Z,65.80
2019-02-21T21:45:17.421Z,61.15
2019-02-21T21:47:46.175Z,67.85
2019-02-21T21:50:17.728Z,59.30
2019-02-21T21:52:46.558Z,66.90
2019-02-21T21:55:15.279Z,60.10
2019-02-21T21:57:44.029Z,64.37
2019-02-21T22:00:18.257Z,65.62
2019-02-21T22:02:46.835Z,64.47
2019-02-21T22:05:15.517Z,63.73
2019-02-21T22:07:44.192Z,65.08
2019-02-21T22:10:13.701Z,64.20
2019-02-21T22:12:42.327Z,69.30
2019-02-21T22:15:22.376Z,63.98
2019-02-21T22:17:50.929Z,65.97
2019-02-21T22:20:19.507Z,66.50
2019-02-21T22:22:48.148Z,65.42
2019-02-21T22:25:16.738Z,68.78
2019-02-21T22:27:45.473Z,68.50
2019-02-21T22:30:20.772Z,68.25
2019-02-21T22:32:49.453Z,66.57
2019-02-21T22:35:18.041Z,69.45
2019-02-21T22:37:46.592Z,69.55
2019-02-21T22:40:20.043Z,65.17
2019-02-21T22:42:48.673Z,70.30
2019-02-21T22:45:17.260Z,71.75
2019-02-21T22:47:45.765Z,69.40
2019-02-21T22:50:16.057Z,68.62
2019-02-21T22:52:44.673Z,65.76
2019-02-21T22:55:13.444Z,67.67
2019-02-21T22:57:42.240Z,70.65
2019-02-21T23:00:36.657Z,70.52
2019-02-21T23:03:09.005Z,72.70
2019-02-21T23:06:02.961Z,73.55
2019-02-21T23:08:45.110Z,70.22
2019-02-21T23:11:13.754Z,69.50
2019-02-21T23:13:42.741Z,71.62
2019-02-21T23:16:11.431Z,74.77
2019-02-21T23:18:40.784Z,75.62
2019-02-21T23:21:09.487Z,78.90
2019-02-21T23:23:38.117Z,75.73
2019-02-21T23:26:06.649Z,75.42
2019-02-21T23:28:35.265Z,75.25
2019-02-21T23:31:03.941Z,77.10
2019-02-21T23:33:34.399Z,81.10
2019-02-21T23:36:03.070Z,77.82
2019-02-21T23:38:32.054Z,78.70
2019-02-21T23:41:00.527Z,80.53
2019-02-21T23:43:29.154Z,79.70
2019-02-21T23:45:58.045Z,80.10
2019-02-21T23:48:26.599Z,81.92
2019-02-21T23:50:55.208Z,78.93
2019-02-21T23:53:23.724Z,90.32
2019-02-21T23:55:52.263Z,85.62
2019-02-21T23:58:20.790Z,80.85
